createdAt,value
2018-05-06T00:00:02.640Z,8.04672
2018-05-06T00:00:15.058Z,9.656064
2018-05-06T00:00:27.499Z,9.656064
2018-05-06T00:00:40.011Z,9.656064
2018-05-06T00:00:52.450Z,9.656064
2018-05-06T00:01:04.916Z,1.609344
2018-05-06T00:01:17.333Z,1.609344
2018-05-06T00:01:29.743Z,1.609344
2018-05-06T00:01:42.141Z,1.609344
2018-05-06T00:01:54.536Z,1.609344
2018-05-06T00:02:06.983Z,4.828032
2018-05-06T00:02:19.411Z,6.437376
2018-05-06T00:02:31.817Z,6.437376
2018-05-06T00:02:44.234Z,6.437376
2018-05-06T00:02:56.643Z,6.437376
2018-05-06T00:03:09.063Z,0
2018-05-06T00:03:21.660Z,1.609344
2018-05-06T00:03:34.062Z,1.609344
2018-05-06T00:03:46.480Z,3.218688
2018-05-06T00:03:58.883Z,3.218688
2018-05-06T00:04:11.323Z,1.609344
2018-05-06T00:04:23.893Z,1.609344
2018-05-06T00:04:36.325Z,1.609344
2018-05-06T00:04:48.721Z,1.609344
2018-05-06T00:05:01.174Z,1.609344
2018-05-06T00:05:13.639Z,1.609344
2018-05-06T00:05:26.034Z,1.609344
2018-05-06T00:05:38.462Z,1.609344
2018-05-06T00:05:50.852Z,1.609344
2018-05-06T00:06:03.268Z,0
2018-05-06T00:06:15.681Z,1.609344
2018-05-06T00:06:28.109Z,1.609344
2018-05-06T00:06:40.512Z,4.828032
2018-05-06T00:06:52.944Z,8.04672
2018-05-06T00:07:05.361Z,3.218688
2018-05-06T00:07:17.785Z,8.04672
2018-05-06T00:07:30.192Z,8.04672
2018-05-06T00:07:42.587Z,8.04672
2018-05-06T00:07:54.999Z,8.04672
2018-05-06T00:08:07.420Z,8.04672
2018-05-06T00:08:19.813Z,11.265408
2018-05-06T00:08:32.251Z,11.265408
2018-05-06T00:08:44.687Z,11.265408
2018-05-06T00:08:57.109Z,11.265408
2018-05-06T00:09:09.508Z,6.437376
2018-05-06T00:09:21.910Z,6.437376
2018-05-06T00:09:34.418Z,6.437376
2018-05-06T00:09:46.825Z,6.437376
2018-05-06T00:09:59.392Z,6.437376
2018-05-06T00:10:11.817Z,6.437376
2018-05-06T00:10:24.223Z,9.656064
2018-05-06T00:10:36.667Z,9.656064
2018-05-06T00:10:49.067Z,9.656064
2018-05-06T00:11:01.467Z,9.656064
2018-05-06T00:11:13.887Z,3.218688
2018-05-06T00:11:26.436Z,3.218688
2018-05-06T00:11:38.837Z,8.04672
2018-05-06T00:11:51.231Z,8.04672
2018-05-06T00:12:03.644Z,3.218688
2018-05-06T00:12:16.064Z,8.04672
2018-05-06T00:12:28.481Z,9.656064
2018-05-06T00:12:40.914Z,9.656064
2018-05-06T00:12:53.333Z,9.656064
2018-05-06T00:13:05.747Z,6.437376
2018-05-06T00:13:18.167Z,6.437376
2018-05-06T00:13:30.578Z,6.437376
2018-05-06T00:13:43.009Z,6.437376
2018-05-06T00:13:55.409Z,6.437376
2018-05-06T00:14:07.854Z,6.437376
2018-05-06T00:14:20.276Z,6.437376
2018-05-06T00:14:32.669Z,6.437376
2018-05-06T00:14:45.085Z,8.04672
2018-05-06T00:14:57.495Z,8.04672
2018-05-06T00:15:10.145Z,6.437376
2018-05-06T00:15:23.320Z,6.437376
2018-05-06T00:15:35.736Z,8.04672
2018-05-06T00:15:48.195Z,8.04672
2018-05-06T00:16:00.608Z,8.04672
2018-05-06T00:16:13.090Z,4.828032
2018-05-06T00:16:25.568Z,8.04672
2018-05-06T00:16:37.970Z,8.04672
2018-05-06T00:16:50.384Z,8.04672
2018-05-06T00:17:02.779Z,8.04672
2018-05-06T00:17:15.212Z,3.218688
2018-05-06T00:17:27.766Z,3.218688
2018-05-06T00:17:40.165Z,3.218688
2018-05-06T00:17:52.581Z,4.828032
2018-05-06T00:18:04.977Z,9.656064
2018-05-06T00:18:17.370Z,9.656064
2018-05-06T00:18:29.922Z,9.656064
2018-05-06T00:18:42.342Z,9.656064
2018-05-06T00:18:54.733Z,9.656064
2018-05-06T00:19:07.148Z,3.218688
2018-05-06T00:19:19.554Z,6.437376
2018-05-06T00:19:31.966Z,6.437376
2018-05-06T00:19:44.374Z,6.437376
2018-05-06T00:19:56.821Z,6.437376
2018-05-06T00:20:09.245Z,3.218688
2018-05-06T00:20:21.677Z,3.218688
2018-05-06T00:20:34.127Z,6.437376
2018-05-06T00:20:46.543Z,8.04672
2018-05-06T00:20:58.931Z,8.04672
2018-05-06T00:21:11.345Z,6.437376
2018-05-06T00:21:23.753Z,6.437376
2018-05-06T00:21:36.154Z,8.04672
2018-05-06T00:21:48.553Z,8.04672
2018-05-06T00:22:00.958Z,8.04672
2018-05-06T00:22:13.384Z,3.218688
2018-05-06T00:22:25.789Z,3.218688
2018-05-06T00:22:38.241Z,3.218688
2018-05-06T00:22:50.659Z,3.218688
2018-05-06T00:23:03.082Z,1.609344
2018-05-06T00:23:15.487Z,3.218688
2018-05-06T00:23:27.941Z,8.04672
2018-05-06T00:23:40.469Z,8.04672
2018-05-06T00:23:52.904Z,8.04672
2018-05-06T00:24:05.305Z,4.828032
2018-05-06T00:24:17.759Z,4.828032
2018-05-06T00:24:30.247Z,4.828032
2018-05-06T00:24:42.752Z,6.437376
2018-05-06T00:24:55.164Z,6.437376
2018-05-06T00:25:07.613Z,3.218688
2018-05-06T00:25:20.023Z,3.218688
2018-05-06T00:25:32.424Z,3.218688
2018-05-06T00:25:44.867Z,3.218688
2018-05-06T00:25:57.287Z,8.04672
2018-05-06T00:26:09.691Z,8.04672
2018-05-06T00:26:22.130Z,8.04672
2018-05-06T00:26:34.546Z,8.04672
2018-05-06T00:26:46.999Z,8.04672
2018-05-06T00:26:59.413Z,8.04672
2018-05-06T00:27:11.815Z,6.437376
2018-05-06T00:27:24.229Z,6.437376
2018-05-06T00:27:36.634Z,6.437376
2018-05-06T00:27:49.049Z,6.437376
2018-05-06T00:28:01.483Z,6.437376
2018-05-06T00:28:13.879Z,3.218688
2018-05-06T00:28:26.279Z,3.218688
2018-05-06T00:28:38.682Z,3.218688
2018-05-06T00:28:51.088Z,3.218688
2018-05-06T00:29:03.517Z,1.609344
2018-05-06T00:29:15.945Z,1.609344
2018-05-06T00:29:28.397Z,1.609344
2018-05-06T00:29:40.848Z,6.437376
2018-05-06T00:29:53.271Z,6.437376
2018-05-06T00:30:05.706Z,3.218688
2018-05-06T00:30:18.117Z,8.04672
2018-05-06T00:30:30.548Z,8.04672
2018-05-06T00:30:43.081Z,8.04672
2018-05-06T00:30:55.504Z,8.04672
2018-05-06T00:31:07.926Z,3.218688
2018-05-06T00:31:20.337Z,3.218688
2018-05-06T00:31:32.723Z,3.218688
2018-05-06T00:31:45.159Z,3.218688
2018-05-06T00:31:57.586Z,3.218688
2018-05-06T00:32:09.989Z,1.609344
2018-05-06T00:32:22.399Z,1.609344
2018-05-06T00:32:34.827Z,4.828032
2018-05-06T00:32:47.253Z,6.437376
2018-05-06T00:32:59.652Z,6.437376
2018-05-06T00:33:12.082Z,3.218688
2018-05-06T00:33:24.488Z,3.218688
2018-05-06T00:33:37.438Z,3.218688
2018-05-06T00:33:50.246Z,4.828032
2018-05-06T00:34:02.649Z,11.265408
2018-05-06T00:34:15.161Z,8.04672
2018-05-06T00:34:27.563Z,8.04672
2018-05-06T00:34:40.032Z,8.04672
2018-05-06T00:34:52.436Z,8.04672
2018-05-06T00:35:04.876Z,3.218688
2018-05-06T00:35:17.280Z,3.218688
2018-05-06T00:35:29.687Z,3.218688
2018-05-06T00:35:42.107Z,4.828032
2018-05-06T00:35:54.564Z,4.828032
2018-05-06T00:36:06.996Z,4.828032
2018-05-06T00:36:19.429Z,6.437376
2018-05-06T00:36:31.854Z,6.437376
2018-05-06T00:36:44.258Z,6.437376
2018-05-06T00:36:56.792Z,6.437376
2018-05-06T00:37:09.206Z,1.609344
2018-05-06T00:37:21.605Z,3.218688
2018-05-06T00:37:34.000Z,3.218688
2018-05-06T00:37:46.413Z,3.218688
2018-05-06T00:37:58.836Z,3.218688
2018-05-06T00:38:11.271Z,4.828032
2018-05-06T00:38:23.725Z,4.828032
2018-05-06T00:38:36.244Z,6.437376
2018-05-06T00:38:48.667Z,6.437376
2018-05-06T00:39:01.067Z,6.437376
2018-05-06T00:39:13.529Z,1.609344
2018-05-06T00:39:25.942Z,3.218688
2018-05-06T00:39:38.333Z,3.218688
2018-05-06T00:39:50.747Z,3.218688
2018-05-06T00:40:03.169Z,1.609344
2018-05-06T00:40:15.589Z,1.609344
2018-05-06T00:40:28.003Z,1.609344
2018-05-06T00:40:40.440Z,1.609344
2018-05-06T00:40:52.864Z,1.609344
2018-05-06T00:41:05.286Z,1.609344
2018-05-06T00:41:17.706Z,3.218688
2018-05-06T00:41:30.123Z,3.218688
2018-05-06T00:41:42.548Z,3.218688
2018-05-06T00:41:54.951Z,8.04672
2018-05-06T00:42:07.491Z,3.218688
2018-05-06T00:42:19.946Z,4.828032
2018-05-06T00:42:32.342Z,6.437376
2018-05-06T00:42:44.755Z,6.437376
2018-05-06T00:42:57.445Z,6.437376
2018-05-06T00:43:09.870Z,3.218688
2018-05-06T00:43:22.278Z,3.218688
2018-05-06T00:43:34.683Z,3.218688
2018-05-06T00:43:47.090Z,3.218688
2018-05-06T00:43:59.490Z,3.218688
2018-05-06T00:44:11.894Z,0
2018-05-06T00:44:24.396Z,0
2018-05-06T00:44:36.849Z,1.609344
2018-05-06T00:44:49.258Z,6.437376
2018-05-06T00:45:01.669Z,6.437376
2018-05-06T00:45:14.070Z,3.218688
2018-05-06T00:45:26.498Z,3.218688
2018-05-06T00:45:38.921Z,3.218688
2018-05-06T00:45:51.318Z,3.218688
2018-05-06T00:46:03.732Z,1.609344
2018-05-06T00:46:16.166Z,1.609344
2018-05-06T00:46:29.221Z,3.218688
2018-05-06T00:46:41.999Z,3.218688
2018-05-06T00:46:54.400Z,4.828032
2018-05-06T00:47:06.849Z,6.437376
2018-05-06T00:47:19.282Z,6.437376
2018-05-06T00:47:31.682Z,6.437376
2018-05-06T00:47:44.104Z,6.437376
2018-05-06T00:47:56.540Z,6.437376
2018-05-06T00:48:08.947Z,1.609344
2018-05-06T00:48:21.515Z,1.609344
2018-05-06T00:48:33.922Z,1.609344
2018-05-06T00:48:46.347Z,1.609344
2018-05-06T00:48:58.774Z,1.609344
2018-05-06T00:49:11.210Z,0
2018-05-06T00:49:23.646Z,3.218688
2018-05-06T00:49:36.067Z,4.828032
2018-05-06T00:49:48.492Z,4.828032
2018-05-06T00:50:00.928Z,4.828032
2018-05-06T00:50:13.354Z,3.218688
2018-05-06T00:50:25.791Z,3.218688
2018-05-06T00:50:38.206Z,3.218688
2018-05-06T00:50:50.622Z,3.218688
2018-05-06T00:51:03.036Z,1.609344
2018-05-06T00:51:15.618Z,3.218688
2018-05-06T00:51:28.009Z,3.218688
2018-05-06T00:51:40.416Z,3.218688
2018-05-06T00:51:52.837Z,3.218688
2018-05-06T00:52:05.243Z,3.218688
2018-05-06T00:52:17.702Z,3.218688
2018-05-06T00:52:30.115Z,3.218688
2018-05-06T00:52:42.521Z,4.828032
2018-05-06T00:52:54.978Z,6.437376
2018-05-06T00:53:07.376Z,3.218688
2018-05-06T00:53:19.818Z,3.218688
2018-05-06T00:53:32.308Z,3.218688
2018-05-06T00:53:44.722Z,3.218688
2018-05-06T00:53:57.144Z,3.218688
2018-05-06T00:54:09.542Z,1.609344
2018-05-06T00:54:21.953Z,3.218688
2018-05-06T00:54:34.434Z,6.437376
2018-05-06T00:54:46.838Z,8.04672
2018-05-06T00:54:59.234Z,8.04672
2018-05-06T00:55:11.641Z,3.218688
2018-05-06T00:55:24.044Z,3.218688
2018-05-06T00:55:36.433Z,3.218688
2018-05-06T00:55:48.866Z,6.437376
2018-05-06T00:56:01.294Z,6.437376
2018-05-06T00:56:13.708Z,8.04672
2018-05-06T00:56:26.132Z,8.04672
2018-05-06T00:56:38.536Z,8.04672
2018-05-06T00:56:50.938Z,8.04672
2018-05-06T00:57:03.347Z,1.609344
2018-05-06T00:57:15.746Z,4.828032
2018-05-06T00:57:28.156Z,6.437376
2018-05-06T00:57:40.569Z,6.437376
2018-05-06T00:57:52.988Z,6.437376
2018-05-06T00:58:05.404Z,0
2018-05-06T00:58:17.813Z,0
2018-05-06T00:58:30.237Z,0
2018-05-06T00:58:42.647Z,0
2018-05-06T00:58:55.067Z,0
2018-05-06T00:59:07.505Z,0
2018-05-06T00:59:19.892Z,0
2018-05-06T00:59:32.348Z,0
2018-05-06T00:59:44.743Z,0
2018-05-06T00:59:57.167Z,0
2018-05-06T01:00:09.578Z,1.609344
2018-05-06T01:00:22.103Z,1.609344
2018-05-06T01:00:34.545Z,1.609344
2018-05-06T01:00:46.980Z,1.609344
2018-05-06T01:00:59.441Z,1.609344
2018-05-06T01:01:11.966Z,1.609344
2018-05-06T01:01:24.433Z,3.218688
2018-05-06T01:01:36.906Z,3.218688
2018-05-06T01:01:49.328Z,3.218688
2018-05-06T01:02:01.888Z,3.218688
2018-05-06T01:02:14.404Z,1.609344
2018-05-06T01:02:26.998Z,4.828032
2018-05-06T01:02:39.399Z,4.828032
2018-05-06T01:02:51.917Z,4.828032
2018-05-06T01:03:04.384Z,1.609344
2018-05-06T01:03:16.786Z,3.218688
2018-05-06T01:03:29.194Z,3.218688
2018-05-06T01:03:41.635Z,3.218688
2018-05-06T01:03:54.048Z,3.218688
2018-05-06T01:04:06.481Z,0
2018-05-06T01:04:18.902Z,0
2018-05-06T01:04:31.311Z,0
2018-05-06T01:04:43.717Z,0
2018-05-06T01:04:56.125Z,0
2018-05-06T01:05:08.553Z,0
2018-05-06T01:05:20.950Z,3.218688
2018-05-06T01:05:33.405Z,4.828032
2018-05-06T01:05:45.832Z,4.828032
2018-05-06T01:05:58.316Z,4.828032
2018-05-06T01:06:10.726Z,0
2018-05-06T01:06:23.160Z,4.828032
2018-05-06T01:06:35.570Z,4.828032
2018-05-06T01:06:48.007Z,4.828032
2018-05-06T01:07:00.415Z,4.828032
2018-05-06T01:07:12.818Z,1.609344
2018-05-06T01:07:25.260Z,1.609344
2018-05-06T01:07:37.650Z,1.609344
2018-05-06T01:07:50.061Z,1.609344
2018-05-06T01:08:02.481Z,4.828032
2018-05-06T01:08:14.891Z,6.437376
2018-05-06T01:08:27.333Z,6.437376
2018-05-06T01:08:39.765Z,6.437376
2018-05-06T01:08:52.264Z,6.437376
2018-05-06T01:09:04.679Z,3.218688
2018-05-06T01:09:17.102Z,3.218688
2018-05-06T01:09:29.510Z,3.218688
2018-05-06T01:09:41.948Z,6.437376
2018-05-06T01:09:54.366Z,6.437376
2018-05-06T01:10:06.820Z,3.218688
2018-05-06T01:10:19.234Z,3.218688
2018-05-06T01:10:31.645Z,3.218688
2018-05-06T01:10:44.144Z,3.218688
2018-05-06T01:10:56.546Z,3.218688
2018-05-06T01:11:08.952Z,1.609344
2018-05-06T01:11:21.511Z,1.609344
2018-05-06T01:11:33.903Z,1.609344
2018-05-06T01:11:46.309Z,1.609344
2018-05-06T01:11:58.724Z,1.609344
2018-05-06T01:12:11.149Z,1.609344
2018-05-06T01:12:23.580Z,1.609344
2018-05-06T01:12:35.978Z,1.609344
2018-05-06T01:12:48.401Z,1.609344
2018-05-06T01:13:00.818Z,3.218688
2018-05-06T01:13:13.230Z,8.04672
2018-05-06T01:13:25.664Z,8.04672
2018-05-06T01:13:38.123Z,8.04672
2018-05-06T01:13:50.610Z,8.04672
2018-05-06T01:14:03.032Z,6.437376
2018-05-06T01:14:15.442Z,8.04672
2018-05-06T01:14:27.881Z,8.04672
2018-05-06T01:14:40.365Z,8.04672
2018-05-06T01:14:52.780Z,8.04672
2018-05-06T01:15:05.201Z,1.609344
2018-05-06T01:15:17.613Z,3.218688
2018-05-06T01:15:30.024Z,3.218688
2018-05-06T01:15:42.454Z,3.218688
2018-05-06T01:15:54.876Z,3.218688
2018-05-06T01:16:07.281Z,1.609344
2018-05-06T01:16:19.691Z,1.609344
2018-05-06T01:16:32.126Z,1.609344
2018-05-06T01:16:44.540Z,1.609344
2018-05-06T01:16:56.956Z,1.609344
2018-05-06T01:17:09.379Z,3.218688
2018-05-06T01:17:21.808Z,6.437376
2018-05-06T01:17:34.229Z,6.437376
2018-05-06T01:17:46.647Z,6.437376
2018-05-06T01:17:59.060Z,6.437376
2018-05-06T01:18:11.468Z,1.609344
2018-05-06T01:18:23.982Z,1.609344
2018-05-06T01:18:36.397Z,1.609344
2018-05-06T01:18:48.806Z,3.218688
2018-05-06T01:19:01.210Z,3.218688
2018-05-06T01:19:13.648Z,1.609344
2018-05-06T01:19:26.073Z,4.828032
2018-05-06T01:19:38.458Z,6.437376
2018-05-06T01:19:50.878Z,6.437376
2018-05-06T01:20:03.322Z,1.609344
2018-05-06T01:20:15.754Z,3.218688
2018-05-06T01:20:28.164Z,3.218688
2018-05-06T01:20:40.585Z,6.437376
2018-05-06T01:20:52.996Z,8.04672
2018-05-06T01:21:05.411Z,8.04672
2018-05-06T01:21:17.820Z,8.04672
2018-05-06T01:21:30.259Z,8.04672
2018-05-06T01:21:42.678Z,8.04672
2018-05-06T01:21:55.101Z,8.04672
2018-05-06T01:22:07.538Z,1.609344
2018-05-06T01:22:19.961Z,1.609344
2018-05-06T01:22:32.365Z,1.609344
2018-05-06T01:22:44.763Z,3.218688
2018-05-06T01:22:57.173Z,3.218688
2018-05-06T01:23:09.579Z,1.609344
2018-05-06T01:23:22.034Z,1.609344
2018-05-06T01:23:34.463Z,1.609344
2018-05-06T01:23:47.204Z,1.609344
2018-05-06T01:23:59.624Z,1.609344
2018-05-06T01:24:12.065Z,0
2018-05-06T01:24:24.469Z,0
2018-05-06T01:24:37.044Z,0
2018-05-06T01:24:49.453Z,1.609344
2018-05-06T01:25:01.879Z,1.609344
2018-05-06T01:25:14.292Z,1.609344
2018-05-06T01:25:26.725Z,1.609344
2018-05-06T01:25:39.146Z,1.609344
2018-05-06T01:25:51.567Z,1.609344
2018-05-06T01:26:03.974Z,1.609344
2018-05-06T01:26:16.387Z,3.218688
2018-05-06T01:26:28.806Z,4.828032
2018-05-06T01:26:41.232Z,4.828032
2018-05-06T01:26:53.686Z,4.828032
2018-05-06T01:27:06.099Z,4.828032
2018-05-06T01:27:18.515Z,6.437376
2018-05-06T01:27:30.952Z,6.437376
2018-05-06T01:27:43.373Z,6.437376
2018-05-06T01:27:55.820Z,6.437376
2018-05-06T01:28:08.235Z,1.609344
2018-05-06T01:28:20.696Z,1.609344
2018-05-06T01:28:33.109Z,1.609344
2018-05-06T01:28:45.507Z,1.609344
2018-05-06T01:28:57.923Z,1.609344
2018-05-06T01:29:10.342Z,1.609344
2018-05-06T01:29:22.753Z,3.218688
2018-05-06T01:29:35.231Z,3.218688
2018-05-06T01:29:47.632Z,3.218688
2018-05-06T01:30:00.040Z,3.218688
2018-05-06T01:30:12.525Z,1.609344
2018-05-06T01:30:24.930Z,1.609344
2018-05-06T01:30:37.350Z,1.609344
2018-05-06T01:30:49.746Z,1.609344
2018-05-06T01:31:02.166Z,1.609344
2018-05-06T01:31:14.585Z,1.609344
2018-05-06T01:31:26.998Z,3.218688
2018-05-06T01:31:39.443Z,3.218688
2018-05-06T01:31:51.878Z,3.218688
2018-05-06T01:32:04.286Z,1.609344
2018-05-06T01:32:16.707Z,3.218688
2018-05-06T01:32:29.116Z,3.218688
2018-05-06T01:32:41.592Z,3.218688
2018-05-06T01:32:54.006Z,3.218688
2018-05-06T01:33:06.409Z,3.218688
2018-05-06T01:33:18.820Z,3.218688
2018-05-06T01:33:31.229Z,3.218688
2018-05-06T01:33:43.657Z,3.218688
2018-05-06T01:33:56.075Z,3.218688
2018-05-06T01:34:08.473Z,1.609344
2018-05-06T01:34:20.890Z,1.609344
2018-05-06T01:34:33.343Z,1.609344
2018-05-06T01:34:45.759Z,1.609344
2018-05-06T01:34:58.170Z,1.609344
2018-05-06T01:35:10.573Z,1.609344
2018-05-06T01:35:22.986Z,3.218688
2018-05-06T01:35:35.386Z,4.828032
2018-05-06T01:35:47.796Z,4.828032
2018-05-06T01:36:00.220Z,4.828032
2018-05-06T01:36:12.633Z,1.609344
2018-05-06T01:36:25.125Z,1.609344
2018-05-06T01:36:37.550Z,1.609344
2018-05-06T01:36:49.972Z,3.218688
2018-05-06T01:37:02.452Z,3.218688
2018-05-06T01:37:14.858Z,3.218688
2018-05-06T01:37:27.247Z,4.828032
2018-05-06T01:37:39.663Z,4.828032
2018-05-06T01:37:52.095Z,4.828032
2018-05-06T01:38:04.574Z,1.609344
2018-05-06T01:38:16.968Z,1.609344
2018-05-06T01:38:29.396Z,1.609344
2018-05-06T01:38:41.802Z,1.609344
2018-05-06T01:38:54.243Z,1.609344
2018-05-06T01:39:06.653Z,1.609344
2018-05-06T01:39:19.087Z,1.609344
2018-05-06T01:39:31.490Z,3.218688
2018-05-06T01:39:43.906Z,3.218688
2018-05-06T01:39:56.332Z,3.218688
2018-05-06T01:40:08.742Z,1.609344
2018-05-06T01:40:21.169Z,3.218688
2018-05-06T01:40:33.582Z,3.218688
2018-05-06T01:40:45.988Z,3.218688
2018-05-06T01:40:58.388Z,3.218688
2018-05-06T01:41:10.802Z,1.609344
2018-05-06T01:41:23.362Z,1.609344
2018-05-06T01:41:35.786Z,1.609344
2018-05-06T01:41:48.193Z,1.609344
2018-05-06T01:42:00.583Z,3.218688
2018-05-06T01:42:13.022Z,3.218688
2018-05-06T01:42:25.439Z,6.437376
2018-05-06T01:42:37.949Z,6.437376
2018-05-06T01:42:50.598Z,6.437376
2018-05-06T01:43:03.012Z,6.437376
2018-05-06T01:43:15.418Z,3.218688
2018-05-06T01:43:27.833Z,3.218688
2018-05-06T01:43:40.246Z,3.218688
2018-05-06T01:43:52.664Z,3.218688
2018-05-06T01:44:05.078Z,1.609344
2018-05-06T01:44:17.481Z,1.609344
2018-05-06T01:44:29.893Z,4.828032
2018-05-06T01:44:42.325Z,4.828032
2018-05-06T01:44:54.741Z,6.437376
2018-05-06T01:45:07.175Z,3.218688
2018-05-06T01:45:19.602Z,6.437376
2018-05-06T01:45:32.098Z,6.437376
2018-05-06T01:45:44.520Z,6.437376
2018-05-06T01:45:56.921Z,6.437376
2018-05-06T01:46:09.349Z,4.828032
2018-05-06T01:46:21.749Z,4.828032
2018-05-06T01:46:34.164Z,4.828032
2018-05-06T01:46:46.561Z,4.828032
2018-05-06T01:46:58.963Z,4.828032
2018-05-06T01:47:11.399Z,1.609344
2018-05-06T01:47:23.811Z,4.828032
2018-05-06T01:47:36.210Z,4.828032
2018-05-06T01:47:48.624Z,4.828032
2018-05-06T01:48:01.064Z,4.828032
2018-05-06T01:48:13.689Z,1.609344
2018-05-06T01:48:26.124Z,1.609344
2018-05-06T01:48:38.537Z,1.609344
2018-05-06T01:48:50.985Z,3.218688
2018-05-06T01:49:03.408Z,1.609344
2018-05-06T01:49:15.851Z,1.609344
2018-05-06T01:49:28.325Z,1.609344
2018-05-06T01:49:40.734Z,1.609344
2018-05-06T01:49:53.245Z,1.609344
2018-05-06T01:50:05.647Z,1.609344
2018-05-06T01:50:18.055Z,3.218688
2018-05-06T01:50:30.487Z,3.218688
2018-05-06T01:50:42.885Z,3.218688
2018-05-06T01:50:55.311Z,3.218688
2018-05-06T01:51:07.697Z,0
2018-05-06T01:51:20.129Z,1.609344
2018-05-06T01:51:32.541Z,1.609344
2018-05-06T01:51:44.962Z,1.609344
2018-05-06T01:51:57.391Z,1.609344
2018-05-06T01:52:09.795Z,1.609344
2018-05-06T01:52:22.229Z,1.609344
2018-05-06T01:52:34.661Z,1.609344
2018-05-06T01:52:47.055Z,1.609344
2018-05-06T01:52:59.475Z,1.609344
2018-05-06T01:53:12.151Z,1.609344
2018-05-06T01:53:24.558Z,3.218688
2018-05-06T01:53:36.966Z,3.218688
2018-05-06T01:53:49.387Z,3.218688
2018-05-06T01:54:01.792Z,3.218688
2018-05-06T01:54:14.224Z,3.218688
2018-05-06T01:54:26.681Z,6.437376
2018-05-06T01:54:39.115Z,8.04672
2018-05-06T01:54:51.523Z,8.04672
2018-05-06T01:55:03.948Z,1.609344
2018-05-06T01:55:16.360Z,3.218688
2018-05-06T01:55:28.767Z,4.828032
2018-05-06T01:55:41.189Z,4.828032
2018-05-06T01:55:53.594Z,4.828032
2018-05-06T01:56:05.994Z,3.218688
2018-05-06T01:56:18.426Z,3.218688
2018-05-06T01:56:30.844Z,3.218688
2018-05-06T01:56:43.322Z,4.828032
2018-05-06T01:56:55.751Z,6.437376
2018-05-06T01:57:08.184Z,3.218688
2018-05-06T01:57:20.607Z,3.218688
2018-05-06T01:57:33.010Z,3.218688
2018-05-06T01:57:45.445Z,3.218688
2018-05-06T01:57:57.887Z,3.218688
2018-05-06T01:58:10.298Z,1.609344
2018-05-06T01:58:22.747Z,1.609344
2018-05-06T01:58:35.155Z,1.609344
2018-05-06T01:58:47.570Z,3.218688
2018-05-06T01:59:00.009Z,3.218688
2018-05-06T01:59:12.526Z,1.609344
2018-05-06T01:59:25.012Z,1.609344
2018-05-06T01:59:37.634Z,3.218688
2018-05-06T01:59:50.051Z,3.218688
2018-05-06T02:00:02.466Z,3.218688
2018-05-06T02:00:14.926Z,0
2018-05-06T02:00:27.378Z,0
2018-05-06T02:00:39.823Z,0
2018-05-06T02:00:52.874Z,0
2018-05-06T02:01:05.675Z,0
2018-05-06T02:01:18.207Z,0
2018-05-06T02:01:30.633Z,1.609344
2018-05-06T02:01:43.087Z,3.218688
2018-05-06T02:01:55.490Z,3.218688
2018-05-06T02:02:07.975Z,3.218688
2018-05-06T02:02:20.395Z,3.218688
2018-05-06T02:02:32.819Z,3.218688
2018-05-06T02:02:45.274Z,3.218688
2018-05-06T02:02:57.679Z,4.828032
2018-05-06T02:03:10.120Z,6.437376
2018-05-06T02:03:22.541Z,6.437376
2018-05-06T02:03:34.972Z,6.437376
2018-05-06T02:03:47.449Z,6.437376
2018-05-06T02:03:59.863Z,6.437376
2018-05-06T02:04:12.281Z,1.609344
2018-05-06T02:04:24.710Z,1.609344
2018-05-06T02:04:37.191Z,1.609344
2018-05-06T02:04:49.589Z,1.609344
2018-05-06T02:05:02.012Z,1.609344
2018-05-06T02:05:14.435Z,1.609344
2018-05-06T02:05:26.874Z,4.828032
2018-05-06T02:05:39.302Z,4.828032
2018-05-06T02:05:51.702Z,4.828032
2018-05-06T02:06:04.216Z,1.609344
2018-05-06T02:06:16.708Z,4.828032
2018-05-06T02:06:29.222Z,4.828032
2018-05-06T02:06:41.644Z,4.828032
2018-05-06T02:06:54.056Z,4.828032
2018-05-06T02:07:06.490Z,1.609344
2018-05-06T02:07:18.948Z,3.218688
2018-05-06T02:07:31.382Z,3.218688
2018-05-06T02:07:43.813Z,3.218688
2018-05-06T02:07:56.207Z,8.04672
2018-05-06T02:08:08.605Z,6.437376
2018-05-06T02:08:21.045Z,8.04672
2018-05-06T02:08:33.441Z,8.04672
2018-05-06T02:08:45.868Z,8.04672
2018-05-06T02:08:58.277Z,8.04672
2018-05-06T02:09:10.672Z,1.609344
2018-05-06T02:09:23.110Z,3.218688
2018-05-06T02:09:35.526Z,6.437376
2018-05-06T02:09:48.039Z,6.437376
2018-05-06T02:10:00.461Z,6.437376
2018-05-06T02:10:12.911Z,1.609344
2018-05-06T02:10:25.301Z,3.218688
2018-05-06T02:10:37.716Z,3.218688
2018-05-06T02:10:50.111Z,3.218688
2018-05-06T02:11:02.530Z,3.218688
2018-05-06T02:11:14.945Z,4.828032
2018-05-06T02:11:27.404Z,4.828032
2018-05-06T02:11:39.871Z,4.828032
2018-05-06T02:11:52.380Z,4.828032
2018-05-06T02:12:05.029Z,3.218688
2018-05-06T02:12:17.473Z,6.437376
2018-05-06T02:12:29.926Z,6.437376
2018-05-06T02:12:42.452Z,6.437376
2018-05-06T02:12:54.859Z,6.437376
2018-05-06T02:13:07.274Z,3.218688
2018-05-06T02:13:19.670Z,11.265408
2018-05-06T02:13:32.090Z,11.265408
2018-05-06T02:13:44.496Z,11.265408
2018-05-06T02:13:56.897Z,11.265408
2018-05-06T02:14:09.297Z,3.218688
2018-05-06T02:14:21.712Z,4.828032
2018-05-06T02:14:34.112Z,6.437376
2018-05-06T02:14:46.570Z,6.437376
2018-05-06T02:14:58.976Z,6.437376
2018-05-06T02:15:11.407Z,6.437376
2018-05-06T02:15:23.825Z,8.04672
2018-05-06T02:15:36.231Z,8.04672
2018-05-06T02:15:48.644Z,8.04672
2018-05-06T02:16:01.086Z,8.04672
2018-05-06T02:16:13.491Z,6.437376
2018-05-06T02:16:25.994Z,8.04672
2018-05-06T02:16:38.403Z,8.04672
2018-05-06T02:16:50.860Z,8.04672
2018-05-06T02:17:03.282Z,8.04672
2018-05-06T02:17:15.702Z,8.04672
2018-05-06T02:17:28.135Z,8.04672
2018-05-06T02:17:40.540Z,8.04672
2018-05-06T02:17:52.958Z,8.04672
2018-05-06T02:18:05.372Z,3.218688
2018-05-06T02:18:17.969Z,3.218688
2018-05-06T02:18:30.391Z,3.218688
2018-05-06T02:18:42.809Z,3.218688
2018-05-06T02:18:55.290Z,3.218688
2018-05-06T02:19:07.780Z,1.609344
2018-05-06T02:19:20.267Z,3.218688
2018-05-06T02:19:32.680Z,3.218688
2018-05-06T02:19:45.172Z,11.265408
2018-05-06T02:19:57.602Z,11.265408
2018-05-06T02:20:10.012Z,8.04672
2018-05-06T02:20:22.439Z,8.04672
2018-05-06T02:20:34.981Z,8.04672
2018-05-06T02:20:47.482Z,8.04672
2018-05-06T02:20:59.918Z,8.04672
2018-05-06T02:21:12.325Z,1.609344
2018-05-06T02:21:24.722Z,1.609344
2018-05-06T02:21:37.144Z,1.609344
2018-05-06T02:21:49.659Z,3.218688
2018-05-06T02:22:02.056Z,3.218688
2018-05-06T02:22:14.462Z,3.218688
2018-05-06T02:22:26.860Z,3.218688
2018-05-06T02:22:39.338Z,3.218688
2018-05-06T02:22:51.734Z,3.218688
2018-05-06T02:23:04.144Z,4.828032
2018-05-06T02:23:16.541Z,6.437376
2018-05-06T02:23:28.965Z,6.437376
2018-05-06T02:23:41.578Z,6.437376
2018-05-06T02:23:54.012Z,6.437376
2018-05-06T02:24:06.420Z,1.609344
2018-05-06T02:24:18.884Z,3.218688
2018-05-06T02:24:31.301Z,8.04672
2018-05-06T02:24:43.887Z,8.04672
2018-05-06T02:24:56.301Z,8.04672
2018-05-06T02:25:08.725Z,6.437376
2018-05-06T02:25:21.163Z,6.437376
2018-05-06T02:25:33.599Z,6.437376
2018-05-06T02:25:46.017Z,6.437376
2018-05-06T02:25:58.411Z,6.437376
2018-05-06T02:26:10.798Z,3.218688
2018-05-06T02:26:23.202Z,3.218688
2018-05-06T02:26:35.612Z,3.218688
2018-05-06T02:26:48.042Z,4.828032
2018-05-06T02:27:00.494Z,6.437376
2018-05-06T02:27:12.934Z,3.218688
2018-05-06T02:27:25.425Z,4.828032
2018-05-06T02:27:37.862Z,4.828032
2018-05-06T02:27:50.284Z,4.828032